To NAV CANADA Home Page Login to a new session Search on AWWS site Feedback and Comments Disclaimer Vers la page française équivalente Tips FAQ What's new on the site To the Forecasts and Observations / NOTAM section To "File a Flight Plan" website Publications and other links Update of the User's profile FIC Telephone Numbers My Weather Data Folder Route Weather Data Regional Weather Data Local Weather Data To the Forecasts and Observations / NOTAM section
Request Generated 02/12/2016 at 15:56:26 UTC . Weather information available at that time is displayed.

METAR/TAF

LYNN LAKE/MB    (show WxCam)

METAR CYYL 121500Z AUTO 29009KT 9SM CLR M35/M38 A3060 RMK SLP423
DENSITY ALT MISG=
METAR CYYL 121400Z AUTO 30008KT 9SM CLR M35/M38 A3060 RMK SLP423
DENSITY ALT MISG=
METAR CYYL 121300Z AUTO 31008KT 9SM CLR M35/M38 A3061 RMK SLP426
DENSITY ALT MISG=

TAF CYYL 121238Z 1213/1301 31008KT P6SM SKC
BECMG 1221/1223 24005KT
RMK FCST BASED ON AUTO OBS. NXT FCST BY 121900Z=
Your time UTC time
Weather data provided by Environment Canada and NAV CANADA